Time,TemperatureF,DewpointF,PressureIn,WindDirection,WindDirectionDegrees,WindSpeedMPH,WindSpeedGustMPH,Humidity,HourlyPrecipIn,Conditions,Clouds,dailyrainin,SoftwareType,DateUTC
2013-06-19 00:09:00,78.5,74.0,29.88,SW,231,13.0,17.0,86,0.00,,,0.00,weatherlink.com 1.10,2013-06-19 04:09:00,
2013-06-19 00:25:00,78.9,74.0,29.88,SW,214,5.0,16.0,84,0.00,,,0.00,weatherlink.com 1.10,2013-06-19 04:25:00,
2013-06-19 00:40:00,79.2,73.0,29.88,WSW,252,9.0,17.0,81,0.00,,,0.00,weatherlink.com 1.10,2013-06-19 04:40:00,
2013-06-19 00:55:00,78.9,73.0,29.88,WSW,238,6.0,16.0,81,0.00,,,0.00,weatherlink.com 1.10,2013-06-19 04:55:00,
2013-06-19 01:10:00,78.9,73.0,29.88,SW,229,7.0,17.0,81,0.00,,,0.00,weatherlink.com 1.10,2013-06-19 05:10:00,
2013-06-19 01:25:00,77.6,73.0,29.88,West,280,7.0,11.0,86,0.01,,,0.01,weatherlink.com 1.10,2013-06-19 05:25:00,
2013-06-19 01:40:00,77.5,73.0,29.87,WNW,283,3.0,8.0,87,0.02,,,0.02,weatherlink.com 1.10,2013-06-19 05:40:00,
2013-06-19 01:55:00,76.3,73.0,29.88,West,278,6.0,15.0,88,0.14,,,0.14,weatherlink.com 1.10,2013-06-19 05:55:00,
2013-06-19 02:10:00,74.7,72.0,29.86,WNW,297,9.0,13.0,92,0.31,,,0.32,weatherlink.com 1.10,2013-06-19 06:10:00,
2013-06-19 02:25:00,73.5,71.0,29.86,WNW,299,5.0,12.0,93,0.47,,,0.48,weatherlink.com 1.10,2013-06-19 06:25:00,
2013-06-19 02:40:00,73.0,72.0,29.86,WSW,247,5.0,11.0,95,0.75,,,0.77,weatherlink.com 1.10,2013-06-19 06:40:00,
2013-06-19 02:55:00,73.1,72.0,29.87,WNW,293,4.0,14.0,95,0.77,,,0.94,weatherlink.com 1.10,2013-06-19 06:55:00,
2013-06-19 03:10:00,73.2,72.0,29.88,WNW,291,7.0,10.0,95,0.66,,,0.98,weatherlink.com 1.10,2013-06-19 07:10:00,
2013-06-19 03:26:00,73.2,72.0,29.88,WSW,244,1.0,8.0,95,0.46,,,0.99,weatherlink.com 1.10,2013-06-19 07:26:00,
2013-06-19 03:40:00,73.0,72.0,29.89,SW,219,2.0,5.0,95,0.21,,,0.99,weatherlink.com 1.10,2013-06-19 07:40:00,
2013-06-19 03:55:00,72.8,71.0,29.88,West,264,3.0,4.0,95,0.05,,,0.99,weatherlink.com 1.10,2013-06-19 07:55:00,
2013-06-19 04:10:00,72.7,71.0,29.87,West,279,2.0,6.0,95,0.01,,,0.99,weatherlink.com 1.10,2013-06-19 08:10:00,
2013-06-19 04:25:00,72.9,71.0,29.88,WSW,249,0.0,6.0,95,0.00,,,0.99,weatherlink.com 1.10,2013-06-19 08:25:00,
2013-06-19 04:40:00,73.0,72.0,29.88,SW,233,1.0,2.0,95,0.00,,,0.99,weatherlink.com 1.10,2013-06-19 08:40:00,
2013-06-19 04:55:00,72.9,71.0,29.87,NW,309,0.0,3.0,95,0.00,,,0.99,weatherlink.com 1.10,2013-06-19 08:55:00,
2013-06-19 05:10:00,72.8,71.0,29.86,WNW,296,4.0,4.0,95,0.00,,,0.99,weatherlink.com 1.10,2013-06-19 09:10:00,
2013-06-19 05:25:00,72.7,71.0,29.86,WNW,287,4.0,6.0,95,0.00,,,0.99,weatherlink.com 1.10,2013-06-19 09:25:00,
2013-06-19 05:40:00,72.9,71.0,29.86,WSW,257,2.0,7.0,95,0.00,,,0.99,weatherlink.com 1.10,2013-06-19 09:40:00,
2013-06-19 05:55:00,72.9,71.0,29.88,West,279,3.0,6.0,95,0.00,,,0.99,weatherlink.com 1.10,2013-06-19 09:55:00,
2013-06-19 06:10:00,72.8,71.0,29.89,NW,311,6.0,7.0,95,0.00,,,0.99,weatherlink.com 1.10,2013-06-19 10:10:00,
2013-06-19 06:25:00,72.8,71.0,29.90,SW,236,3.0,7.0,95,0.00,,,0.99,weatherlink.com 1.10,2013-06-19 10:25:00,
2013-06-19 06:40:00,72.9,71.0,29.91,WSW,255,3.0,6.0,95,0.00,,,0.99,weatherlink.com 1.10,2013-06-19 10:40:00,
2013-06-19 06:55:00,72.9,71.0,29.93,West,270,2.0,7.0,95,0.00,,,0.99,weatherlink.com 1.10,2013-06-19 10:55:00,
2013-06-19 07:10:00,72.8,71.0,29.93,WNW,297,1.0,6.0,95,0.02,,,1.01,weatherlink.com 1.10,2013-06-19 11:10:00,
2013-06-19 07:25:00,72.6,71.0,29.93,WNW,293,2.0,4.0,95,0.06,,,1.05,weatherlink.com 1.10,2013-06-19 11:25:00,
2013-06-19 07:40:00,72.5,71.0,29.93,WNW,290,1.0,5.0,96,0.07,,,1.06,weatherlink.com 1.10,2013-06-19 11:40:00,
2013-06-19 07:55:00,72.5,71.0,29.93,NW,318,0.0,5.0,96,0.06,,,1.06,weatherlink.com 1.10,2013-06-19 11:55:00,
2013-06-19 08:10:00,72.4,71.0,29.94,NNE,23,4.0,8.0,95,0.05,,,1.06,weatherlink.com 1.10,2013-06-19 12:10:00,
2013-06-19 08:25:00,71.7,71.0,29.95,NNE,20,5.0,8.0,96,0.01,,,1.06,weatherlink.com 1.10,2013-06-19 12:25:00,
2013-06-19 08:40:00,71.9,71.0,29.96,North,360,6.0,8.0,96,0.00,,,1.06,weatherlink.com 1.10,2013-06-19 12:40:00,
2013-06-19 08:55:00,72.0,71.0,29.96,NE,34,5.0,9.0,95,0.00,,,1.06,weatherlink.com 1.10,2013-06-19 12:55:00,
2013-06-19 09:11:00,72.2,71.0,29.97,NE,39,6.0,10.0,95,0.00,,,1.06,weatherlink.com 1.10,2013-06-19 13:11:00,
2013-06-19 09:26:00,72.9,71.0,29.96,North,10,8.0,10.0,94,0.00,,,1.06,weatherlink.com 1.10,2013-06-19 13:26:00,
2013-06-19 09:41:00,72.5,71.0,29.97,NE,34,7.0,12.0,94,0.00,,,1.06,weatherlink.com 1.10,2013-06-19 13:41:00,
2013-06-19 09:56:00,72.6,71.0,29.98,NNE,31,8.0,17.0,94,0.00,,,1.06,weatherlink.com 1.10,2013-06-19 13:56:00,
2013-06-19 10:11:00,73.0,71.0,29.98,ENE,60,20.0,21.0,94,0.00,,,1.06,weatherlink.com 1.10,2013-06-19 14:11:00,
2013-06-19 10:26:00,71.2,69.0,29.98,ENE,61,22.0,22.0,94,0.01,,,1.07,weatherlink.com 1.10,2013-06-19 14:26:00,
2013-06-19 10:41:00,71.2,69.0,30.00,NE,42,18.0,22.0,93,0.01,,,1.07,weatherlink.com 1.10,2013-06-19 14:41:00,
2013-06-19 10:56:00,71.4,69.0,30.01,NE,42,16.0,19.0,92,0.01,,,1.07,weatherlink.com 1.10,2013-06-19 14:56:00,
2013-06-19 11:11:00,71.6,69.0,30.01,NE,47,15.0,20.0,92,0.01,,,1.07,weatherlink.com 1.10,2013-06-19 15:11:00,
2013-06-19 11:26:00,71.6,69.0,30.01,NE,49,14.0,17.0,90,0.00,,,1.07,weatherlink.com 1.10,2013-06-19 15:26:00,
2013-06-19 11:41:00,71.9,69.0,30.02,NE,49,15.0,17.0,89,0.00,,,1.07,weatherlink.com 1.10,2013-06-19 15:41:00,
2013-06-19 11:56:00,72.2,69.0,30.02,ENE,57,13.0,15.0,89,0.00,,,1.07,weatherlink.com 1.10,2013-06-19 15:56:00,
2013-06-19 12:11:00,72.0,70.0,30.02,ENE,70,16.0,20.0,92,0.00,,,1.07,weatherlink.com 1.10,2013-06-19 16:11:00,
2013-06-19 12:26:00,71.6,70.0,30.03,ENE,65,17.0,18.0,93,0.00,,,1.07,weatherlink.com 1.10,2013-06-19 16:26:00,
2013-06-19 12:41:00,71.6,69.0,30.03,ENE,67,12.0,19.0,91,0.00,,,1.07,weatherlink.com 1.10,2013-06-19 16:41:00,
2013-06-19 12:56:00,72.3,69.0,30.04,ENE,75,14.0,14.0,90,0.00,,,1.07,weatherlink.com 1.10,2013-06-19 16:56:00,
2013-06-19 13:11:00,72.4,69.0,30.04,NE,46,10.0,14.0,89,0.01,,,1.08,weatherlink.com 1.10,2013-06-19 17:11:00,
2013-06-19 13:26:00,72.0,69.0,30.05,ENE,65,13.0,14.0,89,0.01,,,1.08,weatherlink.com 1.10,2013-06-19 17:26:00,
2013-06-19 13:41:00,71.9,69.0,30.04,ENE,64,15.0,15.0,90,0.01,,,1.08,weatherlink.com 1.10,2013-06-19 17:41:00,
2013-06-19 13:56:00,71.8,69.0,30.04,ENE,60,12.0,15.0,90,0.01,,,1.08,weatherlink.com 1.10,2013-06-19 17:56:00,
2013-06-19 14:11:00,72.2,69.0,30.04,ENE,59,10.0,13.0,89,0.00,,,1.08,weatherlink.com 1.10,2013-06-19 18:11:00,
2013-06-19 14:26:00,72.6,69.0,30.04,ENE,63,13.0,14.0,87,0.00,,,1.08,weatherlink.com 1.10,2013-06-19 18:26:00,
2013-06-19 14:41:00,72.7,68.0,30.04,ENE,63,10.0,13.0,86,0.00,,,1.08,weatherlink.com 1.10,2013-06-19 18:41:00,
2013-06-19 14:56:00,72.9,69.0,30.04,ENE,68,11.0,14.0,87,0.00,,,1.08,weatherlink.com 1.10,2013-06-19 18:56:00,
2013-06-19 15:11:00,72.9,69.0,30.03,ENE,64,9.0,15.0,87,0.00,,,1.08,weatherlink.com 1.10,2013-06-19 19:11:00,
2013-06-19 15:26:00,73.2,70.0,30.03,ENE,66,13.0,16.0,88,0.00,,,1.08,weatherlink.com 1.10,2013-06-19 19:26:00,
2013-06-19 15:41:00,73.3,69.0,30.02,ENE,61,18.0,21.0,87,0.00,,,1.08,weatherlink.com 1.10,2013-06-19 19:41:00,
2013-06-19 15:56:00,73.5,70.0,30.02,ENE,68,19.0,21.0,87,0.00,,,1.08,weatherlink.com 1.10,2013-06-19 19:56:00,
2013-06-19 16:11:00,74.1,69.0,30.02,NE,54,16.0,23.0,84,0.00,,,1.08,weatherlink.com 1.10,2013-06-19 20:11:00,
2013-06-19 16:26:00,74.4,69.0,30.02,ENE,61,21.0,23.0,82,0.00,,,1.08,weatherlink.com 1.10,2013-06-19 20:26:00,
2013-06-19 16:41:00,74.5,68.0,30.02,NE,51,20.0,24.0,81,0.00,,,1.08,weatherlink.com 1.10,2013-06-19 20:41:00,
2013-06-19 16:56:00,74.6,68.0,30.02,ENE,61,19.0,25.0,81,0.00,,,1.08,weatherlink.com 1.10,2013-06-19 20:56:00,
2013-06-19 17:11:00,74.4,69.0,30.02,ENE,72,19.0,25.0,83,0.00,,,1.08,weatherlink.com 1.10,2013-06-19 21:11:00,
2013-06-19 17:26:00,74.2,69.0,30.03,NE,55,21.0,23.0,83,0.00,,,1.08,weatherlink.com 1.10,2013-06-19 21:26:00,
2013-06-19 17:41:00,74.4,69.0,30.03,ENE,63,21.0,23.0,82,0.00,,,1.08,weatherlink.com 1.10,2013-06-19 21:41:00,
2013-06-19 17:56:00,73.9,68.0,30.04,ENE,66,20.0,25.0,82,0.00,,,1.08,weatherlink.com 1.10,2013-06-19 21:56:00,
2013-06-19 18:11:00,73.8,68.0,30.04,ENE,58,24.0,25.0,82,0.00,,,1.08,weatherlink.com 1.10,2013-06-19 22:11:00,
2013-06-19 18:26:00,73.5,68.0,30.05,NE,51,23.0,25.0,83,0.00,,,1.08,weatherlink.com 1.10,2013-06-19 22:26:00,
2013-06-19 18:41:00,73.5,68.0,30.06,ENE,58,23.0,29.0,84,0.00,,,1.08,weatherlink.com 1.10,2013-06-19 22:41:00,
2013-06-19 18:56:00,73.2,68.0,30.07,ENE,60,20.0,26.0,84,0.00,,,1.08,weatherlink.com 1.10,2013-06-19 22:56:00,
2013-06-19 19:11:00,73.1,68.0,30.07,ENE,66,22.0,26.0,85,0.00,,,1.08,weatherlink.com 1.10,2013-06-19 23:11:00,
2013-06-19 19:26:00,73.0,68.0,30.07,NE,47,20.0,26.0,83,0.00,,,1.08,weatherlink.com 1.10,2013-06-19 23:26:00,
2013-06-19 19:41:00,72.5,69.0,30.07,ENE,60,18.0,25.0,87,0.00,,,1.08,weatherlink.com 1.10,2013-06-19 23:41:00,
2013-06-19 19:56:00,72.7,67.0,30.08,ENE,61,21.0,25.0,83,0.00,,,1.08,weatherlink.com 1.10,2013-06-19 23:56:00,
2013-06-19 20:11:00,72.5,67.0,30.07,NE,49,20.0,27.0,83,0.00,,,1.08,weatherlink.com 1.10,2013-06-20 00:11:00,
2013-06-19 20:26:00,72.5,67.0,30.07,NE,51,19.0,23.0,84,0.00,,,1.08,weatherlink.com 1.10,2013-06-20 00:26:00,
2013-06-19 20:41:00,72.3,68.0,30.08,NE,54,22.0,26.0,86,0.00,,,1.08,weatherlink.com 1.10,2013-06-20 00:41:00,
2013-06-19 20:57:00,72.3,67.0,30.08,ENE,60,19.0,25.0,84,0.00,,,1.08,weatherlink.com 1.10,2013-06-20 00:57:00,
2013-06-19 21:12:00,72.2,68.0,30.08,ENE,58,18.0,21.0,86,0.00,,,1.08,weatherlink.com 1.10,2013-06-20 01:12:00,
2013-06-19 21:42:00,71.7,67.0,30.09,ENE,57,20.0,25.0,84,0.00,,,1.08,weatherlink.com 1.10,2013-06-20 01:42:00,
2013-06-19 21:57:00,71.6,67.0,30.10,NE,39,17.0,23.0,84,0.00,,,1.08,weatherlink.com 1.10,2013-06-20 01:57:00,
2013-06-19 22:12:00,71.9,67.0,30.10,NE,54,22.0,25.0,84,0.00,,,1.08,weatherlink.com 1.10,2013-06-20 02:12:00,
2013-06-19 22:27:00,72.0,67.0,30.11,NE,56,22.0,26.0,85,0.00,,,1.08,weatherlink.com 1.10,2013-06-20 02:27:00,
2013-06-19 22:42:00,71.9,67.0,30.11,NE,55,21.0,28.0,85,0.00,,,1.08,weatherlink.com 1.10,2013-06-20 02:42:00,
2013-06-19 22:57:00,71.5,67.0,30.11,ENE,60,23.0,25.0,85,0.00,,,1.08,weatherlink.com 1.10,2013-06-20 02:57:00,
2013-06-19 23:12:00,71.7,67.0,30.11,NE,48,23.0,23.0,86,0.00,,,1.08,weatherlink.com 1.10,2013-06-20 03:12:00,
2013-06-19 23:27:00,71.4,67.0,30.11,NE,45,18.0,24.0,85,0.00,,,1.08,weatherlink.com 1.10,2013-06-20 03:27:00,
2013-06-19 23:42:00,71.4,67.0,30.11,ENE,60,22.0,25.0,86,0.00,,,1.08,weatherlink.com 1.10,2013-06-20 03:42:00,
2013-06-19 23:57:00,71.3,67.0,30.11,ENE,57,20.0,23.0,85,0.00,,,1.08,weatherlink.com 1.10,2013-06-20 03:57:00,